Time;durP1;ratioP1;P1;durP2;ratioP2;P2;SDS_P1;SDS_P2;PMS_P1;PMS_P2;Temp;Humidity;BMP_temperature;BMP_pressure;BME280_temperature;BME280_humidity;BME280_pressure;Samples;Min_cycle;Max_cycle;Signal;HPM_P1;HPM_P2
2023/12/20 00:02:09;;;;;;;9.97;4.90;;;7.30;99.90;;;;;;4876768;29;20263;-76
2023/12/20 00:04:35;;;;;;;7.10;4.80;;;7.30;99.90;;;;;;4880586;29;20176;-77
2023/12/20 00:07:01;;;;;;;6.07;3.90;;;7.30;99.90;;;;;;4878870;29;20176;-77
2023/12/20 00:09:27;;;;;;;11.27;5.50;;;7.30;99.90;;;;;;4920501;29;20250;-76
2023/12/20 00:11:52;;;;;;;10.20;4.73;;;7.30;99.90;;;;;;4934091;29;20422;-77
2023/12/20 00:14:20;;;;;;;6.07;3.87;;;7.30;99.90;;;;;;4918445;29;20223;-77
2023/12/20 00:16:45;;;;;;;6.60;3.20;;;7.30;99.90;;;;;;4930670;29;20218;-77
2023/12/20 00:19:11;;;;;;;6.60;3.60;;;7.30;99.90;;;;;;4933107;29;20427;-76
2023/12/20 00:21:38;;;;;;;12.23;5.70;;;7.30;99.90;;;;;;4935535;29;20190;-76
2023/12/20 00:24:04;;;;;;;11.70;5.70;;;7.40;99.90;;;;;;4920260;29;20186;-76
2023/12/20 00:26:29;;;;;;;14.83;6.47;;;7.40;99.90;;;;;;4924531;29;20458;-79
2023/12/20 00:28:55;;;;;;;19.27;7.60;;;7.40;99.90;;;;;;4932753;29;20427;-76
2023/12/20 00:31:22;;;;;;;18.20;8.37;;;7.40;99.90;;;;;;4914882;29;20199;-77
2023/12/20 00:33:47;;;;;;;18.57;8.07;;;7.40;99.90;;;;;;4887085;29;20242;-76
2023/12/20 00:36:13;;;;;;;19.37;9.00;;;7.30;99.90;;;;;;4923471;29;20450;-78
2023/12/20 00:38:39;;;;;;;20.23;8.37;;;7.30;99.90;;;;;;4932671;29;20210;-77
2023/12/20 00:41:05;;;;;;;19.67;8.43;;;7.30;99.90;;;;;;4921089;29;20853;-77
2023/12/20 00:43:32;;;;;;;17.37;7.60;;;7.30;99.90;;;;;;4923787;29;20223;-78
2023/12/20 00:45:59;;;;;;;11.93;6.90;;;7.30;99.90;;;;;;4915815;29;20465;-77
2023/12/20 00:48:31;;;;;;;14.93;6.80;;;7.20;99.90;;;;;;4950434;29;20201;-76
2023/12/20 00:50:57;;;;;;;10.77;5.93;;;7.10;99.90;;;;;;4953180;29;20734;-76
2023/12/20 00:53:23;;;;;;;10.70;5.60;;;7.00;99.90;;;;;;4951053;29;20564;-77
2023/12/20 00:55:50;;;;;;;12.10;5.93;;;6.90;99.90;;;;;;4943446;29;20441;-77
2023/12/20 00:58:15;;;;;;;11.47;5.87;;;7.00;99.90;;;;;;4945153;29;20193;-77
2023/12/20 01:00:42;;;;;;;9.60;5.20;;;6.90;99.90;;;;;;4945372;29;20417;-76
2023/12/20 01:03:08;;;;;;;15.53;6.10;;;7.00;99.90;;;;;;4953034;29;20174;-78
2023/12/20 01:05:34;;;;;;;11.97;5.80;;;7.00;99.90;;;;;;4940136;29;20450;-76
2023/12/20 01:08:00;;;;;;;9.23;5.00;;;7.00;99.90;;;;;;4944794;29;20457;-77
2023/12/20 01:10:28;;;;;;;15.10;6.00;;;6.90;99.90;;;;;;4936355;29;20624;-76
2023/12/20 01:12:53;;;;;;;8.67;4.70;;;6.80;99.90;;;;;;4934441;29;20202;-76
2023/12/20 01:15:19;;;;;;;9.20;4.70;;;6.70;99.90;;;;;;4943889;29;20457;-77
2023/12/20 01:17:45;;;;;;;9.83;4.87;;;6.60;99.90;;;;;;4937377;29;20200;-77
2023/12/20 01:20:10;;;;;;;10.27;5.03;;;6.50;99.90;;;;;;4936474;29;20194;-76
2023/12/20 01:22:36;;;;;;;12.57;4.57;;;6.40;99.90;;;;;;4944356;29;20193;-78
2023/12/20 01:25:02;;;;;;;11.40;4.77;;;6.40;99.90;;;;;;4955026;29;20218;-76
2023/12/20 01:27:28;;;;;;;9.43;6.00;;;6.40;99.90;;;;;;4932619;29;20198;-77
2023/12/20 01:29:54;;;;;;;10.93;5.37;;;6.40;99.90;;;;;;4952390;29;20452;-76
2023/12/20 01:32:20;;;;;;;11.13;5.43;;;6.40;99.90;;;;;;4940382;29;20205;-77
2023/12/20 01:34:48;;;;;;;14.27;6.07;;;6.40;99.90;;;;;;4939521;29;20426;-75
2023/12/20 01:37:14;;;;;;;20.00;7.07;;;6.40;99.90;;;;;;4915924;29;20557;-78
2023/12/20 01:39:39;;;;;;;25.33;7.67;;;6.50;99.90;;;;;;4916247;29;20474;-77
2023/12/20 01:42:05;;;;;;;20.27;7.83;;;6.50;99.90;;;;;;4927128;29;20618;-76
2023/12/20 01:44:31;;;;;;;23.33;7.33;;;6.60;99.90;;;;;;4938749;29;20182;-77
2023/12/20 01:46:57;;;;;;;21.33;8.27;;;6.60;99.90;;;;;;4939404;29;20253;-76
2023/12/20 01:49:23;;;;;;;21.93;8.63;;;6.60;99.90;;;;;;4899431;29;20618;-75
2023/12/20 01:51:50;;;;;;;27.67;10.07;;;6.60;99.90;;;;;;4944380;29;20549;-75
2023/12/20 01:54:15;;;;;;;30.57;11.23;;;6.60;99.90;;;;;;4935905;29;20198;-76
2023/12/20 01:56:42;;;;;;;48.60;13.17;;;6.60;99.90;;;;;;4945560;29;20442;-76
2023/12/20 01:59:09;;;;;;;35.30;14.60;;;6.60;99.90;;;;;;4949605;29;20521;-76
2023/12/20 02:01:36;;;;;;;41.80;14.83;;;6.60;99.90;;;;;;4942588;29;20422;-76
2023/12/20 02:04:02;;;;;;;42.73;15.27;;;6.50;99.90;;;;;;4939839;29;20460;-76
2023/12/20 02:06:33;;;;;;;43.10;16.93;;;6.40;99.90;;;;;;4950379;29;20292;-75
2023/12/20 02:08:59;;;;;;;40.73;14.83;;;6.30;99.90;;;;;;4931422;29;20858;-76
2023/12/20 02:11:26;;;;;;;42.60;15.70;;;6.10;99.90;;;;;;4937749;29;20425;-76
2023/12/20 02:13:53;;;;;;;37.83;17.13;;;6.00;99.90;;;;;;4951490;29;20939;-77
2023/12/20 02:16:19;;;;;;;35.27;14.87;;;5.90;99.90;;;;;;4951790;29;20457;-76
2023/12/20 02:18:46;;;;;;;44.10;14.23;;;5.80;99.90;;;;;;4951223;29;20501;-78
2023/12/20 02:21:12;;;;;;;31.50;13.07;;;5.70;99.90;;;;;;4953314;29;20442;-76
2023/12/20 02:23:37;;;;;;;29.23;12.33;;;5.60;99.90;;;;;;4949542;29;20421;-77
2023/12/20 02:26:04;;;;;;;23.63;10.63;;;5.50;99.90;;;;;;4952253;29;20849;-76
2023/12/20 02:28:32;;;;;;;22.07;10.03;;;5.40;99.90;;;;;;4937360;29;20202;-75
2023/12/20 02:30:57;;;;;;;19.90;9.13;;;5.40;99.90;;;;;;4938996;29;20429;-77
2023/12/20 02:33:23;;;;;;;20.53;8.90;;;5.30;99.90;;;;;;4937768;29;20456;-77
2023/12/20 02:35:49;;;;;;;13.37;7.03;;;5.30;99.90;;;;;;4934019;29;20269;-76
2023/12/20 02:38:15;;;;;;;19.50;7.93;;;5.20;99.90;;;;;;4949723;29;20174;-76
2023/12/20 02:40:41;;;;;;;22.37;9.30;;;5.20;99.90;;;;;;4947165;29;20410;-77
2023/12/20 02:43:06;;;;;;;15.60;7.60;;;5.20;99.90;;;;;;4948952;29;20585;-75
2023/12/20 02:45:32;;;;;;;17.40;7.43;;;5.30;99.90;;;;;;4949140;29;20664;-75
2023/12/20 02:47:58;;;;;;;17.83;6.53;;;5.30;99.90;;;;;;4949176;29;20433;-75
2023/12/20 02:50:24;;;;;;;15.37;6.67;;;5.30;99.90;;;;;;4943931;29;20205;-76
2023/12/20 02:52:49;;;;;;;18.63;6.80;;;5.20;99.90;;;;;;4931439;29;20225;-77
2023/12/20 02:55:15;;;;;;;18.80;6.10;;;5.20;99.90;;;;;;4964651;29;20210;-77
2023/12/20 02:57:41;;;;;;;12.53;4.83;;;5.20;99.90;;;;;;4952561;29;20270;-76
2023/12/20 03:00:11;;;;;;;11.93;4.77;;;5.30;99.90;;;;;;4936008;29;20200;-77
2023/12/20 03:02:37;;;;;;;11.43;5.23;;;5.30;99.90;;;;;;4953030;29;20437;-77
2023/12/20 03:05:03;;;;;;;12.93;4.50;;;5.30;99.90;;;;;;4936324;29;20510;-77
2023/12/20 03:07:28;;;;;;;16.43;4.40;;;5.40;99.90;;;;;;4951488;29;20817;-76
2023/12/20 03:09:55;;;;;;;8.87;3.43;;;5.40;99.90;;;;;;4953924;29;20561;-76
2023/12/20 03:12:20;;;;;;;11.23;4.10;;;5.40;99.90;;;;;;4953363;29;20410;-76
2023/12/20 03:14:46;;;;;;;7.83;3.87;;;5.40;99.90;;;;;;4946603;29;20888;-76
2023/12/20 03:17:11;;;;;;;6.73;2.80;;;5.40;99.90;;;;;;4941545;29;20197;-77
2023/12/20 03:19:37;;;;;;;9.33;4.00;;;5.50;99.90;;;;;;4940703;29;20190;-76
2023/12/20 03:22:03;;;;;;;6.80;3.00;;;5.50;99.90;;;;;;4951812;29;20193;-75
2023/12/20 03:24:28;;;;;;;8.23;3.37;;;5.50;99.90;;;;;;4939034;29;20197;-76
2023/12/20 03:26:54;;;;;;;6.60;2.53;;;5.50;99.90;;;;;;4938162;29;20353;-76
2023/12/20 03:29:19;;;;;;;6.40;2.80;;;5.50;99.90;;;;;;4938827;29;20178;-76
2023/12/20 03:31:45;;;;;;;7.03;2.60;;;5.50;99.90;;;;;;4938486;29;20272;-76
2023/12/20 03:34:11;;;;;;;5.80;2.40;;;5.50;99.90;;;;;;4937541;29;20225;-76
2023/12/20 03:36:37;;;;;;;3.97;2.60;;;5.50;99.90;;;;;;4950012;29;20205;-76
2023/12/20 03:39:03;;;;;;;6.93;2.50;;;5.60;99.90;;;;;;4938024;29;20861;-76
2023/12/20 03:41:28;;;;;;;4.60;2.73;;;5.60;99.90;;;;;;4928509;29;20606;-77
2023/12/20 03:43:54;;;;;;;8.53;3.83;;;5.60;99.90;;;;;;4940069;29;20268;-76
2023/12/20 03:46:20;;;;;;;17.10;3.87;;;5.50;99.90;;;;;;4930857;29;20286;-76
2023/12/20 03:48:45;;;;;;;10.00;3.63;;;5.50;99.90;;;;;;4917992;29;20514;-77
2023/12/20 03:51:11;;;;;;;9.67;3.87;;;5.50;99.90;;;;;;4918963;29;20178;-76
2023/12/20 03:53:36;;;;;;;9.47;3.83;;;5.50;99.90;;;;;;4918744;29;20216;-77
2023/12/20 03:56:02;;;;;;;19.07;4.77;;;5.50;99.90;;;;;;4912125;29;20294;-76
2023/12/20 03:58:27;;;;;;;11.57;4.43;;;5.50;99.90;;;;;;4918794;29;20228;-77
2023/12/20 04:00:53;;;;;;;10.40;4.10;;;5.50;99.90;;;;;;4919112;29;20197;-77
2023/12/20 04:03:19;;;;;;;13.30;3.63;;;5.50;99.90;;;;;;4919344;29;20240;-76
2023/12/20 04:05:44;;;;;;;11.00;4.43;;;5.50;99.90;;;;;;4918759;29;20281;-76
2023/12/20 04:08:10;;;;;;;8.10;3.93;;;5.50;99.90;;;;;;4904654;29;20326;-77
2023/12/20 04:10:37;;;;;;;7.30;3.33;;;5.40;99.90;;;;;;4918795;29;20194;-77
2023/12/20 04:13:03;;;;;;;3.73;2.87;;;5.40;99.90;;;;;;4918980;29;20511;-77
2023/12/20 04:15:28;;;;;;;7.60;3.20;;;5.40;99.90;;;;;;4918277;29;20525;-77
2023/12/20 04:17:54;;;;;;;6.50;3.40;;;5.40;99.90;;;;;;4918368;29;20809;-76
2023/12/20 04:20:19;;;;;;;9.60;3.90;;;5.40;99.90;;;;;;4918978;29;20504;-76
2023/12/20 04:22:45;;;;;;;12.80;3.67;;;5.50;99.90;;;;;;4919132;29;20206;-77
2023/12/20 04:25:11;;;;;;;7.70;3.53;;;5.40;99.90;;;;;;4919567;29;20475;-76
2023/12/20 04:27:36;;;;;;;11.00;3.80;;;5.40;99.90;;;;;;4918922;29;20202;-76
2023/12/20 04:30:02;;;;;;;5.83;3.07;;;5.40;99.90;;;;;;4918763;29;20197;-76
2023/12/20 04:32:28;;;;;;;7.60;3.73;;;5.50;99.90;;;;;;4919093;29;20281;-75
2023/12/20 04:34:53;;;;;;;6.13;3.10;;;5.50;99.90;;;;;;4918731;29;20206;-75
2023/12/20 04:37:19;;;;;;;6.13;2.93;;;5.50;99.90;;;;;;4918370;29;20265;-75
2023/12/20 04:39:44;;;;;;;11.80;4.33;;;5.50;99.90;;;;;;4904711;29;20452;-76
2023/12/20 04:42:10;;;;;;;12.93;4.40;;;5.50;99.90;;;;;;4918486;29;20249;-77
2023/12/20 04:44:35;;;;;;;12.53;4.03;;;5.40;99.90;;;;;;4918944;29;20203;-76
2023/12/20 04:47:01;;;;;;;9.43;4.37;;;5.30;99.90;;;;;;4930300;29;20652;-77
2023/12/20 04:49:27;;;;;;;10.50;4.50;;;5.30;99.90;;;;;;4936860;29;20612;-76
2023/12/20 04:51:52;;;;;;;9.07;4.97;;;5.20;99.90;;;;;;4937558;29;20511;-76
2023/12/20 04:54:18;;;;;;;10.97;5.50;;;5.20;99.90;;;;;;4937587;29;20204;-76
2023/12/20 04:56:43;;;;;;;14.87;5.00;;;5.20;99.90;;;;;;4937839;29;20621;-76
2023/12/20 04:59:09;;;;;;;12.07;5.00;;;5.20;99.90;;;;;;4936971;29;20304;-75
2023/12/20 05:01:34;;;;;;;13.10;4.57;;;5.30;99.90;;;;;;4945040;29;20189;-76
2023/12/20 05:04:00;;;;;;;10.80;4.23;;;5.30;99.90;;;;;;4953572;29;20194;-77
2023/12/20 05:06:25;;;;;;;12.60;4.90;;;5.30;99.90;;;;;;4959032;29;20525;-75
2023/12/20 05:08:51;;;;;;;12.17;5.20;;;5.30;99.90;;;;;;4962822;29;20192;-76
2023/12/20 05:11:19;;;;;;;13.83;5.60;;;5.20;99.90;;;;;;4962218;29;20216;-76
2023/12/20 05:13:45;;;;;;;13.80;4.77;;;5.10;99.90;;;;;;4953904;29;20532;-76
2023/12/20 05:16:10;;;;;;;8.00;4.17;;;5.00;99.90;;;;;;4943115;29;20209;-75
2023/12/20 05:18:36;;;;;;;10.07;4.40;;;4.90;99.90;;;;;;4944667;29;20225;-76
2023/12/20 05:21:02;;;;;;;11.23;5.73;;;4.80;99.90;;;;;;4941267;29;20174;-75
2023/12/20 05:23:27;;;;;;;18.60;5.87;;;4.80;99.90;;;;;;4945803;29;20186;-75
2023/12/20 05:25:53;;;;;;;14.20;6.90;;;4.90;99.90;;;;;;4940334;29;20218;-76
2023/12/20 05:28:19;;;;;;;18.30;6.57;;;5.00;99.90;;;;;;4952045;29;20541;-76
2023/12/20 05:30:45;;;;;;;13.43;5.87;;;5.00;99.90;;;;;;4940864;29;20197;-76
2023/12/20 05:33:10;;;;;;;13.33;6.60;;;5.10;99.90;;;;;;4942866;29;20205;-78
2023/12/20 05:35:36;;;;;;;8.53;5.20;;;5.10;99.90;;;;;;4944734;29;20465;-76
2023/12/20 05:38:02;;;;;;;12.30;5.33;;;5.10;99.90;;;;;;4951074;29;20186;-76
2023/12/20 05:40:28;;;;;;;9.20;4.90;;;5.00;99.90;;;;;;4952588;29;20237;-75
2023/12/20 05:42:54;;;;;;;15.53;7.70;;;4.90;99.90;;;;;;4941736;29;20371;-76
2023/12/20 05:45:20;;;;;;;20.90;8.43;;;4.90;99.90;;;;;;4953152;29;20445;-77
2023/12/20 05:47:45;;;;;;;17.40;7.37;;;4.90;99.90;;;;;;4934574;29;20541;-77
2023/12/20 05:50:11;;;;;;;22.93;8.40;;;4.90;99.90;;;;;;4917296;29;20207;-75
2023/12/20 05:52:36;;;;;;;22.13;7.03;;;4.90;99.90;;;;;;4917861;29;20293;-76
2023/12/20 05:55:02;;;;;;;17.07;7.60;;;5.00;99.90;;;;;;4934851;29;20210;-75
2023/12/20 05:57:28;;;;;;;22.73;7.87;;;5.00;99.90;;;;;;4934996;29;20198;-77
2023/12/20 05:59:53;;;;;;;26.77;9.63;;;5.00;99.90;;;;;;4916773;29;20195;-75
2023/12/20 06:02:19;;;;;;;31.40;10.20;;;5.00;99.90;;;;;;4925839;29;20163;-76
2023/12/20 06:04:45;;;;;;;23.37;8.37;;;5.10;99.90;;;;;;4926316;29;20191;-77
2023/12/20 06:07:15;;;;;;;18.07;8.30;;;5.10;99.90;;;;;;4932568;29;20248;-76
2023/12/20 06:09:41;;;;;;;20.37;7.57;;;5.00;99.90;;;;;;4899388;29;20198;-75
2023/12/20 06:12:08;;;;;;;18.67;7.07;;;5.00;99.90;;;;;;4920857;29;20415;-76
2023/12/20 06:14:34;;;;;;;17.60;8.17;;;5.00;99.90;;;;;;4933287;29;20209;-78
2023/12/20 06:17:01;;;;;;;18.00;6.97;;;5.00;99.90;;;;;;4934319;29;20410;-77
2023/12/20 06:19:27;;;;;;;20.23;6.53;;;5.00;99.90;;;;;;4920621;29;20933;-80
2023/12/20 06:21:53;;;;;;;20.47;8.40;;;5.10;99.90;;;;;;4904293;29;20167;-77
2023/12/20 06:24:19;;;;;;;22.47;7.43;;;5.10;99.90;;;;;;4931054;29;20473;-76
2023/12/20 06:26:44;;;;;;;18.10;8.27;;;5.10;99.90;;;;;;4911655;29;20241;-77
2023/12/20 06:29:10;;;;;;;19.07;8.10;;;5.20;99.90;;;;;;4926677;29;20194;-76
2023/12/20 06:31:36;;;;;;;16.50;7.60;;;5.20;99.90;;;;;;4924677;29;20190;-79
2023/12/20 06:34:02;;;;;;;24.13;8.80;;;5.20;99.90;;;;;;4935167;29;20219;-77
2023/12/20 06:36:27;;;;;;;18.30;7.37;;;5.30;99.90;;;;;;4909885;29;20234;-78
2023/12/20 06:38:53;;;;;;;26.07;10.37;;;5.30;99.90;;;;;;4938821;29;20598;-76
2023/12/20 06:41:19;;;;;;;17.73;7.60;;;5.30;99.90;;;;;;4906318;29;20241;-77
2023/12/20 06:43:44;;;;;;;20.20;8.97;;;5.30;99.90;;;;;;4934990;29;20272;-77
2023/12/20 06:46:10;;;;;;;22.23;8.27;;;5.40;99.90;;;;;;4920696;29;20237;-78
2023/12/20 06:48:37;;;;;;;23.77;8.47;;;5.30;99.90;;;;;;4918617;29;20212;-77
2023/12/20 06:51:03;;;;;;;16.57;8.03;;;5.40;99.90;;;;;;4936301;29;20463;-75
2023/12/20 06:53:29;;;;;;;21.20;7.53;;;5.40;99.90;;;;;;4936473;29;20492;-78
2023/12/20 06:55:56;;;;;;;13.90;7.27;;;5.30;99.90;;;;;;4954638;29;20210;-77
2023/12/20 06:58:22;;;;;;;18.47;7.50;;;5.40;99.90;;;;;;4938090;29;20469;-78
2023/12/20 07:00:49;;;;;;;17.60;6.37;;;5.40;99.90;;;;;;4954332;29;20401;-77
2023/12/20 07:03:17;;;;;;;18.03;6.40;;;5.40;99.90;;;;;;4958851;29;20418;-79
2023/12/20 07:05:46;;;;;;;16.90;7.10;;;5.40;99.90;;;;;;4935436;29;20450;-78
2023/12/20 07:08:14;;;;;;;23.90;6.67;;;5.40;99.90;;;;;;4902728;29;20415;-75
2023/12/20 07:10:40;;;;;;;13.10;5.77;;;5.40;99.90;;;;;;4903633;29;20434;-77
2023/12/20 07:13:06;;;;;;;35.60;9.17;;;5.40;99.90;;;;;;4936934;29;20462;-78
2023/12/20 07:15:32;;;;;;;19.70;7.90;;;5.50;99.90;;;;;;4920563;29;20194;-76
2023/12/20 07:17:59;;;;;;;13.50;6.17;;;5.50;99.90;;;;;;4903206;29;20427;-77
2023/12/20 07:20:28;;;;;;;26.13;8.70;;;5.50;99.90;;;;;;4916707;29;20226;-75
2023/12/20 07:22:54;;;;;;;21.27;6.40;;;5.50;99.90;;;;;;4902852;29;20495;-78
2023/12/20 07:25:20;;;;;;;22.40;6.47;;;5.40;99.90;;;;;;4901178;29;20454;-79
2023/12/20 07:27:45;;;;;;;25.87;8.10;;;5.50;99.90;;;;;;4899373;29;20251;-76
2023/12/20 07:30:11;;;;;;;20.83;8.27;;;5.40;99.90;;;;;;4931207;29;20427;-78
2023/12/20 07:32:37;;;;;;;29.40;10.27;;;5.40;99.90;;;;;;4916561;29;20185;-79
2023/12/20 07:35:03;;;;;;;32.17;9.10;;;5.40;99.90;;;;;;4917206;29;20502;-77
2023/12/20 07:37:29;;;;;;;23.10;9.70;;;5.40;99.90;;;;;;4921880;29;20162;-79
2023/12/20 07:39:54;;;;;;;15.67;7.70;;;5.40;99.90;;;;;;4921834;29;20227;-77
2023/12/20 07:42:22;;;;;;;18.93;8.10;;;5.40;99.90;;;;;;4927380;29;20485;-80
2023/12/20 07:44:48;;;;;;;19.20;8.33;;;5.50;99.90;;;;;;4943186;29;20162;-79
2023/12/20 07:47:19;;;;;;;23.50;8.70;;;5.50;99.90;;;;;;4944069;29;20457;-79
2023/12/20 07:49:45;;;;;;;30.80;9.47;;;5.50;99.90;;;;;;4940685;29;20413;-78
2023/12/20 07:52:12;;;;;;;27.13;10.57;;;5.50;99.90;;;;;;4941244;29;20426;-80
2023/12/20 07:55:01;;;;;;;22.87;10.83;;;5.50;99.90;;;;;;4926481;28;20242;-82
2023/12/20 07:57:32;;;;;;;33.53;11.63;;;5.40;99.90;;;;;;4932705;29;20458;-80
2023/12/20 07:59:58;;;;;;;47.93;12.77;;;5.50;99.90;;;;;;4934216;29;20442;-77
2023/12/20 08:02:24;;;;;;;37.80;12.70;;;5.50;99.90;;;;;;4920904;29;20434;-77
2023/12/20 08:04:50;;;;;;;24.40;10.33;;;5.40;99.90;;;;;;4937270;29;20429;-78
2023/12/20 08:07:16;;;;;;;40.80;11.20;;;5.40;99.90;;;;;;4952264;29;20453;-75
2023/12/20 08:09:43;;;;;;;18.73;9.90;;;5.50;99.90;;;;;;4939217;29;20178;-76
2023/12/20 08:12:09;;;;;;;42.80;14.47;;;5.50;99.90;;;;;;4933964;29;20209;-77
2023/12/20 08:14:35;;;;;;;25.40;11.23;;;5.50;99.90;;;;;;4938310;29;20467;-78
2023/12/20 08:17:00;;;;;;;37.50;12.20;;;5.50;99.90;;;;;;4940506;29;20491;-77
2023/12/20 08:19:28;;;;;;;23.97;10.37;;;5.50;99.90;;;;;;4915574;29;20185;-81
2023/12/20 08:21:57;;;;;;;36.20;10.83;;;5.50;99.90;;;;;;4926146;29;20194;-83
2023/12/20 08:24:25;;;;;;;42.00;12.20;;;5.50;99.90;;;;;;4955157;28;20508;-80
2023/12/20 08:27:51;;;;;;;35.27;11.00;;;5.60;99.90;;;;;;5071723;23;20598;-79
2023/12/20 08:30:24;;;;;;;33.80;12.10;;;5.50;99.90;;;;;;4934460;28;20437;-78
2023/12/20 08:32:53;;;;;;;29.00;11.40;;;5.50;99.90;;;;;;4908170;29;20479;-79
2023/12/20 08:38:01;;;;;;;40.43;13.50;;;5.60;99.90;;;;;;5147784;23;20470;-79
2023/12/20 08:40:33;;;;;;;24.97;10.97;;;5.60;99.90;;;;;;4974580;28;20487;-81
2023/12/20 08:43:01;;;;;;;43.67;12.97;;;5.60;99.90;;;;;;4984803;28;20411;-78
2023/12/20 08:54:09;;;;;;;37.90;12.00;;;5.80;99.90;;;;;;4980304;28;20475;-78
2023/12/20 08:56:35;;;;;;;29.20;10.90;;;5.90;99.90;;;;;;4975409;29;20448;-77
2023/12/20 08:59:00;;;;;;;55.37;11.93;;;5.90;99.90;;;;;;4961255;29;20417;-74
2023/12/20 09:01:26;;;;;;;43.47;10.50;;;5.90;99.90;;;;;;4974824;28;20462;-76
2023/12/20 09:03:51;;;;;;;38.37;11.20;;;5.80;99.90;;;;;;4947366;28;20187;-75
2023/12/20 09:06:17;;;;;;;41.47;11.00;;;5.70;99.90;;;;;;4943399;28;20209;-74
2023/12/20 09:08:43;;;;;;;32.60;9.70;;;5.70;99.90;;;;;;4959384;28;20474;-76
2023/12/20 09:11:08;;;;;;;24.30;8.10;;;5.70;99.90;;;;;;4975451;28;20243;-74
2023/12/20 09:13:34;;;;;;;24.37;8.00;;;5.70;99.90;;;;;;4959505;29;20213;-74
2023/12/20 09:16:00;;;;;;;24.67;7.63;;;5.70;99.90;;;;;;4949093;28;20210;-77
2023/12/20 09:18:29;;;;;;;31.33;10.03;;;5.70;99.90;;;;;;4971681;29;20260;-79
2023/12/20 09:20:59;;;;;;;19.93;8.07;;;5.70;99.90;;;;;;4940750;29;20440;-79
2023/12/20 09:23:26;;;;;;;32.10;10.30;;;5.70;99.90;;;;;;4983164;23;20476;-81
2023/12/20 09:25:53;;;;;;;24.77;8.50;;;5.80;99.90;;;;;;4940148;29;20414;-78
2023/12/20 09:28:20;;;;;;;28.63;10.00;;;5.80;99.90;;;;;;4933350;29;20218;-80
2023/12/20 09:30:47;;;;;;;25.43;9.63;;;5.90;99.90;;;;;;4923518;29;20465;-79
2023/12/20 09:33:20;;;;;;;20.53;8.90;;;5.80;99.90;;;;;;4952693;28;20473;-81
2023/12/20 09:36:09;;;;;;;25.93;8.00;;;5.80;99.90;;;;;;4944154;29;20441;-78
2023/12/20 09:38:55;;;;;;;37.83;8.70;;;5.80;99.90;;;;;;4940068;29;20444;-78
2023/12/20 09:41:23;;;;;;;18.83;6.67;;;5.80;99.90;;;;;;4939142;29;20501;-78
2023/12/20 09:43:53;;;;;;;24.67;7.70;;;5.80;99.90;;;;;;4950747;28;20493;-79
2023/12/20 09:46:27;;;;;;;21.77;7.20;;;5.90;99.90;;;;;;4950217;29;20445;-78
2023/12/20 09:58:16;;;;;;;13.03;5.60;;;6.00;99.90;;;;;;5055011;23;20529;-77
2023/12/20 10:00:42;;;;;;;28.53;8.50;;;6.20;99.90;;;;;;4929664;29;20461;-77
2023/12/20 10:03:08;;;;;;;29.10;8.33;;;6.20;99.90;;;;;;4942466;29;20174;-77
2023/12/20 10:05:34;;;;;;;27.93;6.63;;;6.30;99.90;;;;;;4942900;29;20645;-72
2023/12/20 10:08:01;;;;;;;21.40;5.90;;;6.30;99.90;;;;;;4937030;29;20459;-72
2023/12/20 10:10:27;;;;;;;18.73;7.30;;;6.30;99.90;;;;;;4947607;29;20198;-73
2023/12/20 10:13:06;;;;;;;21.53;6.20;;;6.60;99.90;;;;;;4932515;29;20457;-74
2023/12/20 10:15:33;;;;;;;16.50;7.10;;;6.60;99.90;;;;;;4954649;29;20786;-75
2023/12/20 10:17:59;;;;;;;13.07;5.47;;;6.60;99.90;;;;;;4941840;29;20413;-74
2023/12/20 10:20:25;;;;;;;13.13;6.10;;;6.80;99.90;;;;;;4943596;29;20427;-73
2023/12/20 10:22:53;;;;;;;13.23;5.23;;;6.80;99.90;;;;;;4909885;29;20471;-75
2023/12/20 10:25:20;;;;;;;22.03;5.63;;;6.70;99.90;;;;;;4951561;29;20518;-73
2023/12/20 10:27:46;;;;;;;18.43;6.90;;;6.80;99.90;;;;;;4932435;29;20437;-75
2023/12/20 10:30:12;;;;;;;21.00;6.07;;;6.90;99.90;;;;;;4926645;29;20429;-76
2023/12/20 10:32:38;;;;;;;17.60;5.67;;;7.00;99.90;;;;;;4937411;29;20195;-76
2023/12/20 10:35:04;;;;;;;17.50;5.70;;;7.10;99.90;;;;;;4927660;29;20449;-77
2023/12/20 10:37:30;;;;;;;25.17;5.60;;;7.10;99.90;;;;;;4922866;29;20190;-77
2023/12/20 10:40:00;;;;;;;13.23;4.30;;;7.20;99.90;;;;;;4948744;29;20432;-81
2023/12/20 10:42:35;;;;;;;11.20;3.73;;;7.30;99.90;;;;;;4947520;29;20181;-80
2023/12/20 10:45:08;;;;;;;13.53;4.90;;;7.30;99.90;;;;;;4931550;29;20512;-78
2023/12/20 10:47:36;;;;;;;11.90;5.10;;;7.40;99.90;;;;;;4950676;29;20390;-80
2023/12/20 10:50:18;;;;;;;15.90;5.20;;;7.40;99.90;;;;;;4942194;29;20456;-79
2023/12/20 10:52:55;;;;;;;14.77;4.10;;;7.40;99.90;;;;;;4901229;29;20530;-80
2023/12/20 10:55:42;;;;;;;12.77;5.10;;;7.30;99.90;;;;;;4869924;29;20439;-80
2023/12/20 10:58:10;;;;;;;13.60;4.97;;;7.30;99.90;;;;;;4905206;29;20471;-80
2023/12/20 11:00:42;;;;;;;10.70;4.40;;;7.40;99.90;;;;;;4906401;29;20427;-79
2023/12/20 11:03:11;;;;;;;11.30;4.87;;;7.40;99.90;;;;;;4858606;29;20419;-79
2023/12/20 11:06:09;;;;;;;15.20;4.27;;;7.40;99.90;;;;;;4889022;29;20527;-77
2023/12/20 11:08:55;;;;;;;12.53;5.40;;;7.40;99.90;;;;;;4890849;29;20424;-79
2023/12/20 11:11:37;;;;;;;12.73;5.23;;;7.50;99.90;;;;;;4866917;29;20451;-79
2023/12/20 11:14:47;;;;;;;6.10;3.30;;;7.50;99.90;;;;;;4884511;29;20448;-81
2023/12/20 11:17:14;;;;;;;8.40;4.17;;;7.50;99.90;;;;;;4884679;29;20428;-79
2023/12/20 11:19:58;;;;;;;9.07;3.50;;;7.50;99.90;;;;;;4879456;29;20559;-79
2023/12/20 11:22:32;;;;;;;14.37;5.50;;;7.60;99.90;;;;;;4886886;29;20444;-80
2023/12/20 11:25:08;;;;;;;15.90;4.33;;;7.60;99.90;;;;;;4902090;29;20490;-79
2023/12/20 11:27:40;;;;;;;8.07;4.67;;;7.70;99.90;;;;;;4888814;29;20427;-79
2023/12/20 11:30:08;;;;;;;9.50;4.50;;;7.70;99.90;;;;;;4871438;29;20400;-79
2023/12/20 11:32:36;;;;;;;15.60;8.30;;;7.80;99.90;;;;;;4865764;29;20431;-80
2023/12/20 11:35:40;;;;;;;7.03;3.37;;;7.80;99.90;;;;;;4919762;29;20404;-80
2023/12/20 11:38:11;;;;;;;10.53;4.30;;;7.90;99.90;;;;;;4885790;29;20451;-78
2023/12/20 11:40:37;;;;;;;12.33;3.83;;;8.00;99.90;;;;;;4889119;29;20448;-78
2023/12/20 11:43:05;;;;;;;17.50;4.00;;;8.00;99.90;;;;;;4892751;29;20468;-77
2023/12/20 11:45:31;;;;;;;17.53;5.03;;;8.00;99.90;;;;;;4897417;29;20488;-79
2023/12/20 11:47:58;;;;;;;10.50;4.53;;;8.20;99.90;;;;;;4881854;29;20471;-79
2023/12/20 11:50:26;;;;;;;10.93;4.40;;;8.30;99.90;;;;;;4866616;29;20475;-80
2023/12/20 11:52:53;;;;;;;9.10;4.80;;;8.30;99.90;;;;;;4874033;29;20479;-76
2023/12/20 11:55:19;;;;;;;8.20;3.90;;;8.30;99.90;;;;;;4915085;29;20440;-79
2023/12/20 11:57:54;;;;;;;6.80;3.60;;;8.40;99.90;;;;;;4911794;28;20470;-78
2023/12/20 12:00:20;;;;;;;10.27;4.50;;;8.30;99.90;;;;;;4944014;28;20421;-77
2023/12/20 12:02:57;;;;;;;14.63;6.00;;;8.30;99.90;;;;;;4950066;29;20493;-79
2023/12/20 12:05:29;;;;;;;12.60;3.70;;;8.30;99.90;;;;;;4946948;29;20536;-79
2023/12/20 12:07:55;;;;;;;9.93;4.37;;;8.20;99.90;;;;;;4932745;29;20426;-79
2023/12/20 12:10:22;;;;;;;15.50;4.70;;;8.20;99.90;;;;;;4951622;29;20429;-78
2023/12/20 12:12:48;;;;;;;14.17;5.30;;;8.10;99.90;;;;;;4943169;29;20220;-79
2023/12/20 12:15:15;;;;;;;13.47;5.17;;;8.20;99.90;;;;;;4932236;29;20556;-78
2023/12/20 12:17:41;;;;;;;14.27;4.30;;;8.10;99.90;;;;;;4926978;29;20454;-79
2023/12/20 12:20:09;;;;;;;8.70;3.77;;;8.00;99.90;;;;;;4931921;29;20419;-79
2023/12/20 12:22:36;;;;;;;14.33;4.77;;;8.00;99.90;;;;;;4915552;29;20494;-79
2023/12/20 12:25:12;;;;;;;11.50;4.30;;;8.10;99.90;;;;;;4922756;29;20453;-80
2023/12/20 12:27:42;;;;;;;19.10;4.50;;;8.00;99.90;;;;;;4928220;29;20447;-79
2023/12/20 12:30:09;;;;;;;5.70;3.60;;;8.00;99.90;;;;;;4924123;29;20507;-79
2023/12/20 12:32:35;;;;;;;13.47;3.77;;;8.00;99.90;;;;;;4923138;29;20423;-79
2023/12/20 12:35:06;;;;;;;14.77;4.00;;;8.00;99.90;;;;;;4931693;29;20431;-80
2023/12/20 12:37:35;;;;;;;9.77;4.17;;;8.00;99.90;;;;;;4917938;29;20423;-78
2023/12/20 12:40:00;;;;;;;14.37;5.43;;;8.00;99.90;;;;;;4918666;29;20395;-79
2023/12/20 12:42:28;;;;;;;15.33;5.47;;;8.00;99.90;;;;;;4926588;29;20504;-79
2023/12/20 12:44:56;;;;;;;10.77;3.70;;;8.00;99.90;;;;;;4888847;29;20207;-79
2023/12/20 12:47:22;;;;;;;9.67;3.70;;;8.00;99.90;;;;;;4871753;29;20467;-78
2023/12/20 12:49:51;;;;;;;8.90;3.37;;;8.10;99.90;;;;;;4864296;29;20524;-79
2023/12/20 12:52:17;;;;;;;10.23;3.70;;;8.10;99.90;;;;;;4858732;29;20478;-77
2023/12/20 12:54:44;;;;;;;11.47;4.70;;;8.10;99.90;;;;;;4864665;29;20935;-79
2023/12/20 12:57:11;;;;;;;12.50;5.93;;;8.20;99.90;;;;;;4866678;29;20191;-79
2023/12/20 12:59:37;;;;;;;12.93;4.30;;;8.10;99.90;;;;;;4869618;29;20461;-78
2023/12/20 13:02:02;;;;;;;15.93;5.93;;;8.00;99.90;;;;;;4875220;29;20457;-79
2023/12/20 13:04:31;;;;;;;16.23;4.77;;;8.00;99.90;;;;;;4870115;29;20197;-78
2023/12/20 13:06:57;;;;;;;12.23;4.67;;;8.00;99.90;;;;;;4887476;29;20219;-79
2023/12/20 13:09:23;;;;;;;12.33;6.07;;;8.00;99.90;;;;;;4912854;29;20423;-78
2023/12/20 13:11:49;;;;;;;14.23;4.37;;;8.00;99.90;;;;;;4918271;29;20482;-77